Time;durP1;ratioP1;P1;durP2;ratioP2;P2;SDS_P1;SDS_P2;PMS_P1;PMS_P2;Temp;Humidity;BMP_temperature;BMP_pressure;BME280_temperature;BME280_humidity;BME280_pressure;Samples;Min_cycle;Max_cycle;Signal;HPM_P1;HPM_P2
2021/05/15 00:02:16;;;;;;;23.97;21.73;;;;;;;;;;5074499;28;20040;-79
2021/05/15 00:04:42;;;;;;;23.17;21.08;;;;;;;;;;5080628;28;20043;-79
2021/05/15 00:07:08;;;;;;;21.73;19.70;;;;;;;;;;5070164;28;20406;-79
2021/05/15 00:09:34;;;;;;;22.48;20.45;;;;;;;;;;5078693;28;20032;-78
2021/05/15 00:12:00;;;;;;;22.83;20.73;;;;;;;;;;5088973;28;20146;-77
2021/05/15 00:14:26;;;;;;;22.93;20.83;;;;;;;;;;5090190;28;20071;-79
2021/05/15 00:16:52;;;;;;;21.92;19.98;;;;;;;;;;5090410;28;20540;-79
2021/05/15 00:19:18;;;;;;;22.10;20.20;;;;;;;;;;5085586;28;20028;-79
2021/05/15 00:21:44;;;;;;;22.00;20.00;;;;;;;;;;5077664;28;20267;-77
2021/05/15 00:24:11;;;;;;;21.63;19.73;;;;;;;;;;5069655;28;20028;-79
2021/05/15 00:26:37;;;;;;;21.98;20.08;;;;;;;;;;5078412;28;20016;-79
2021/05/15 00:29:03;;;;;;;21.10;19.17;;;;;;;;;;5090584;28;20071;-78
2021/05/15 00:31:29;;;;;;;21.33;19.33;;;;;;;;;;5079908;28;20020;-78
2021/05/15 00:33:55;;;;;;;21.00;19.07;;;;;;;;;;5085533;28;20078;-78
2021/05/15 00:36:21;;;;;;;20.43;18.63;;;;;;;;;;5090001;28;20564;-79
2021/05/15 00:38:47;;;;;;;19.90;18.10;;;;;;;;;;5090058;28;20085;-78
2021/05/15 00:41:13;;;;;;;20.47;18.67;;;;;;;;;;5092814;28;20054;-78
2021/05/15 00:43:45;;;;;;;20.47;18.67;;;;;;;;;;5073824;28;20087;-77
2021/05/15 00:46:13;;;;;;;21.50;19.60;;;;;;;;;;5074004;28;20112;-79
2021/05/15 00:48:39;;;;;;;20.42;18.63;;;;;;;;;;5073637;28;20041;-78
2021/05/15 00:51:05;;;;;;;20.92;19.02;;;;;;;;;;5082065;28;20286;-78
2021/05/15 00:53:31;;;;;;;20.98;19.15;;;;;;;;;;5093951;28;20509;-78
2021/05/15 00:55:57;;;;;;;20.23;18.50;;;;;;;;;;5091577;28;20059;-79
2021/05/15 00:58:24;;;;;;;20.23;18.42;;;;;;;;;;5073528;28;20024;-78
2021/05/15 01:00:50;;;;;;;;;;;;;;;;;;5075058;28;20028;-78
2021/05/15 01:03:16;;;;;;;19.88;18.08;;;;;;;;;;5073681;28;19905;-79
2021/05/15 01:05:42;;;;;;;18.40;16.80;;;;;;;;;;5081986;28;20109;-76
2021/05/15 01:08:08;;;;;;;19.37;17.67;;;;;;;;;;5093663;28;20068;-78
2021/05/15 01:10:34;;;;;;;17.73;16.13;;;;;;;;;;5082561;28;20032;-79
2021/05/15 01:13:00;;;;;;;18.93;17.23;;;;;;;;;;5093456;28;20532;-78
2021/05/15 01:15:27;;;;;;;18.50;16.80;;;;;;;;;;5090928;28;20032;-77
2021/05/15 01:17:54;;;;;;;18.08;16.48;;;;;;;;;;5080886;28;20020;-78
2021/05/15 01:20:20;;;;;;;17.70;16.20;;;;;;;;;;5090743;28;20421;-77
2021/05/15 01:22:47;;;;;;;17.92;16.40;;;;;;;;;;5080066;28;20047;-77
2021/05/15 01:25:13;;;;;;;17.63;16.03;;;;;;;;;;5073049;28;20024;-78
2021/05/15 01:27:39;;;;;;;18.45;16.85;;;;;;;;;;5075334;28;20637;-77
2021/05/15 01:30:06;;;;;;;17.37;15.77;;;;;;;;;;5093459;28;20425;-76
2021/05/15 01:32:32;;;;;;;17.98;16.38;;;;;;;;;;5073710;28;20032;-78
2021/05/15 01:34:59;;;;;;;18.23;16.63;;;;;;;;;;5074691;28;20034;-78
2021/05/15 01:37:25;;;;;;;17.27;15.77;;;;;;;;;;5072918;28;20039;-78
2021/05/15 01:39:51;;;;;;;18.25;16.55;;;;;;;;;;5073181;28;20020;-79
2021/05/15 01:42:20;;;;;;;17.00;15.53;;;;;;;;;;5073363;28;20086;-78
2021/05/15 01:44:46;;;;;;;17.15;15.65;;;;;;;;;;5072548;28;20025;-77
2021/05/15 01:47:12;;;;;;;17.20;15.70;;;;;;;;;;5077080;28;20087;-77
2021/05/15 01:49:38;;;;;;;17.03;15.40;;;;;;;;;;5091829;28;20047;-78
2021/05/15 01:52:05;;;;;;;16.67;15.17;;;;;;;;;;5092161;28;20688;-78
2021/05/15 01:54:31;;;;;;;15.57;14.18;;;;;;;;;;5092708;28;20052;-79
2021/05/15 01:56:57;;;;;;;15.32;14.02;;;;;;;;;;5090939;28;20125;-77
2021/05/15 01:59:23;;;;;;;16.55;15.05;;;;;;;;;;5092949;28;20491;-77
2021/05/15 02:01:49;;;;;;;15.88;14.50;;;;;;;;;;5076682;28;20079;-78
2021/05/15 02:04:15;;;;;;;15.60;14.20;;;;;;;;;;5073464;28;20031;-78
2021/05/15 02:06:41;;;;;;;15.40;14.00;;;;;;;;;;5073625;28;20024;-78
2021/05/15 02:09:07;;;;;;;14.93;13.63;;;;;;;;;;5077398;28;20098;-78
2021/05/15 02:11:33;;;;;;;15.13;13.83;;;;;;;;;;5092792;28;20016;-77
2021/05/15 02:13:59;;;;;;;16.15;14.75;;;;;;;;;;5079368;28;20454;-78
2021/05/15 02:16:25;;;;;;;14.67;13.37;;;;;;;;;;5072308;28;20055;-77
2021/05/15 02:18:51;;;;;;;14.87;13.57;;;;;;;;;;5081439;28;20058;-78
2021/05/15 02:21:17;;;;;;;15.10;13.77;;;;;;;;;;5092384;28;20046;-78
2021/05/15 02:23:43;;;;;;;14.10;12.90;;;;;;;;;;5087166;28;20012;-77
2021/05/15 02:26:09;;;;;;;14.33;12.93;;;;;;;;;;5074396;28;20033;-78
2021/05/15 02:28:35;;;;;;;14.23;13.03;;;;;;;;;;5081483;28;20452;-77
2021/05/15 02:31:01;;;;;;;14.30;13.10;;;;;;;;;;5072874;28;20454;-78
2021/05/15 02:33:27;;;;;;;14.20;12.90;;;;;;;;;;5071955;28;20056;-77
2021/05/15 02:35:53;;;;;;;13.73;12.53;;;;;;;;;;5072150;28;20027;-78
2021/05/15 02:38:20;;;;;;;13.83;12.53;;;;;;;;;;5076267;28;20259;-77
2021/05/15 02:40:47;;;;;;;13.85;12.65;;;;;;;;;;5071519;28;20098;-78
2021/05/15 02:43:13;;;;;;;13.10;12.00;;;;;;;;;;5071453;28;20035;-79
2021/05/15 02:45:39;;;;;;;;;;;;;;;;;;5078456;28;20476;-78
2021/05/15 02:48:06;;;;;;;13.88;12.63;;;;;;;;;;5085162;28;20452;-77
2021/05/15 02:50:32;;;;;;;12.85;11.75;;;;;;;;;;5090248;28;20125;-79
2021/05/15 02:52:58;;;;;;;13.13;11.87;;;;;;;;;;5079541;28;20128;-79
2021/05/15 02:55:24;;;;;;;13.43;12.23;;;;;;;;;;5074393;28;20077;-77
2021/05/15 02:57:50;;;;;;;;;;;;;;;;;;5092317;28;20024;-78
2021/05/15 03:00:18;;;;;;;12.35;11.25;;;;;;;;;;5075187;28;20561;-76
2021/05/15 03:02:44;;;;;;;12.75;11.65;;;;;;;;;;5080777;28;20051;-76
2021/05/15 03:05:12;;;;;;;12.63;11.57;;;;;;;;;;5089781;28;20071;-77
2021/05/15 03:07:38;;;;;;;13.35;12.18;;;;;;;;;;5073606;28;20080;-77
2021/05/15 03:10:05;;;;;;;13.07;11.97;;;;;;;;;;5070683;28;20052;-78
2021/05/15 03:12:31;;;;;;;12.30;11.20;;;;;;;;;;5082941;28;20062;-77
2021/05/15 03:14:57;;;;;;;12.73;11.63;;;;;;;;;;5082960;28;20029;-79
2021/05/15 03:17:23;;;;;;;11.70;10.70;;;;;;;;;;5088842;28;20024;-77
2021/05/15 03:19:52;;;;;;;12.00;11.00;;;;;;;;;;5072365;28;20352;-77
2021/05/15 03:22:18;;;;;;;11.60;10.60;;;;;;;;;;5076371;28;20044;-77
2021/05/15 03:24:44;;;;;;;11.20;10.20;;;;;;;;;;5089074;28;20466;-77
2021/05/15 03:27:10;;;;;;;11.63;10.63;;;;;;;;;;5071026;28;20024;-78
2021/05/15 03:29:36;;;;;;;12.63;11.53;;;;;;;;;;5085597;28;20498;-78
2021/05/15 03:32:02;;;;;;;11.23;10.23;;;;;;;;;;5074568;28;20025;-78
2021/05/15 03:34:28;;;;;;;11.60;10.67;;;;;;;;;;5087660;28;20036;-79
2021/05/15 03:36:54;;;;;;;11.70;10.70;;;;;;;;;;5073473;28;20039;-77
2021/05/15 03:39:20;;;;;;;11.20;10.30;;;;;;;;;;5079012;28;20542;-79
2021/05/15 03:41:46;;;;;;;11.03;10.03;;;;;;;;;;5088198;28;20028;-76
2021/05/15 03:44:13;;;;;;;11.15;10.15;;;;;;;;;;5090787;28;20040;-78
2021/05/15 03:46:39;;;;;;;10.68;9.77;;;;;;;;;;5077130;28;20048;-77
2021/05/15 03:49:05;;;;;;;10.10;9.30;;;;;;;;;;5071088;28;20051;-76
2021/05/15 03:51:31;;;;;;;10.43;9.53;;;;;;;;;;5086265;28;20062;-77
2021/05/15 03:53:57;;;;;;;11.07;9.98;;;;;;;;;;5085005;28;20034;-78
2021/05/15 03:56:23;;;;;;;9.88;9.07;;;;;;;;;;5070508;28;20035;-78
2021/05/15 03:58:49;;;;;;;9.98;9.18;;;;;;;;;;5084796;28;20028;-78
2021/05/15 04:01:15;;;;;;;9.70;8.90;;;;;;;;;;5082731;28;20497;-78
2021/05/15 04:03:41;;;;;;;9.20;8.40;;;;;;;;;;5087481;28;20035;-78
2021/05/15 04:06:07;;;;;;;9.35;8.65;;;;;;;;;;5070583;28;20024;-78
2021/05/15 04:08:33;;;;;;;9.25;8.45;;;;;;;;;;5070242;28;20032;-78
2021/05/15 04:10:59;;;;;;;9.15;8.35;;;;;;;;;;5071214;28;20036;-78
2021/05/15 04:16:31;;;;;;;8.88;8.10;;;;;;;;;;5073722;28;20040;-78
2021/05/15 04:18:56;;;;;;;;;;;;;;;;;;5073220;28;20114;-78
2021/05/15 04:21:22;;;;;;;9.25;8.45;;;;;;;;;;5090267;28;19991;-79
2021/05/15 04:23:48;;;;;;;9.40;8.60;;;;;;;;;;5088441;28;20462;-79
2021/05/15 04:26:14;;;;;;;9.25;8.45;;;;;;;;;;5088743;28;20080;-79
2021/05/15 04:28:40;;;;;;;8.70;8.00;;;;;;;;;;5076407;28;20055;-78
2021/05/15 04:31:07;;;;;;;8.43;7.72;;;;;;;;;;5076471;28;20043;-76
2021/05/15 04:33:33;;;;;;;8.30;7.60;;;;;;;;;;5077083;28;20151;-78
2021/05/15 04:36:00;;;;;;;8.73;8.02;;;;;;;;;;5069688;28;20055;-77
2021/05/15 04:38:26;;;;;;;8.60;7.90;;;;;;;;;;5073801;28;20068;-79
2021/05/15 04:40:52;;;;;;;8.50;7.75;;;;;;;;;;5070238;28;20040;-79
2021/05/15 04:43:18;;;;;;;8.40;7.70;;;;;;;;;;5070007;28;20024;-78
2021/05/15 04:45:45;;;;;;;8.23;7.53;;;;;;;;;;5070276;28;20044;-78
2021/05/15 04:48:12;;;;;;;8.35;7.60;;;;;;;;;;5069501;28;20055;-79
2021/05/15 04:50:38;;;;;;;7.88;7.18;;;;;;;;;;5069620;28;20033;-79
2021/05/15 04:53:04;;;;;;;8.32;7.68;;;;;;;;;;5085038;28;20029;-78
2021/05/15 04:55:30;;;;;;;8.32;7.55;;;;;;;;;;5089679;28;20024;-79
2021/05/15 04:57:58;;;;;;;8.30;7.60;;;;;;;;;;5090221;28;20041;-78
2021/05/15 05:00:24;;;;;;;7.55;6.95;;;;;;;;;;5083602;28;20339;-77
2021/05/15 05:02:51;;;;;;;7.72;7.13;;;;;;;;;;5070406;28;20134;-78
2021/05/15 05:05:17;;;;;;;;;;;;;;;;;;5070188;28;20474;-77
2021/05/15 05:07:43;;;;;;;8.00;7.30;;;;;;;;;;5087117;28;19912;-79
2021/05/15 05:10:09;;;;;;;7.70;7.00;;;;;;;;;;5089832;28;20066;-78
2021/05/15 05:12:35;;;;;;;7.55;6.95;;;;;;;;;;5090137;28;20023;-78
2021/05/15 05:15:01;;;;;;;7.95;7.25;;;;;;;;;;5090060;28;20111;-79
2021/05/15 05:17:27;;;;;;;7.63;7.03;;;;;;;;;;5089515;28;20107;-77
2021/05/15 05:19:53;;;;;;;7.28;6.68;;;;;;;;;;5090124;28;20021;-78
2021/05/15 05:22:20;;;;;;;7.28;6.68;;;;;;;;;;5075176;28;20029;-78
2021/05/15 05:24:46;;;;;;;7.20;6.60;;;;;;;;;;5069452;28;20038;-78
2021/05/15 05:27:12;;;;;;;7.20;6.60;;;;;;;;;;5071893;28;20039;-78
2021/05/15 05:29:38;;;;;;;;;;;;;;;;;;5086572;28;20032;-78
2021/05/15 05:32:08;;;;;;;7.47;6.70;;;;;;;;;;5082653;28;19934;-76
2021/05/15 05:34:34;;;;;;;7.28;6.57;;;;;;;;;;5081566;28;20413;-77
2021/05/15 05:37:01;;;;;;;7.28;6.57;;;;;;;;;;5083676;28;20058;-74
2021/05/15 05:39:27;;;;;;;7.38;6.68;;;;;;;;;;5076080;28;20059;-78
2021/05/15 05:41:53;;;;;;;6.45;5.85;;;;;;;;;;5076541;28;20031;-78
2021/05/15 05:44:19;;;;;;;5.65;5.15;;;;;;;;;;5072948;28;20024;-78
2021/05/15 05:46:45;;;;;;;7.35;4.60;;;;;;;;;;5082526;28;20175;-77
2021/05/15 05:49:11;;;;;;;5.22;4.72;;;;;;;;;;5082858;28;20138;-77
2021/05/15 05:51:37;;;;;;;6.38;5.78;;;;;;;;;;5073891;28;20024;-77
2021/05/15 05:54:04;;;;;;;6.50;5.90;;;;;;;;;;5074283;28;20029;-78
2021/05/15 05:56:30;;;;;;;8.20;7.40;;;;;;;;;;5073349;28;20012;-77
2021/05/15 05:58:56;;;;;;;7.85;7.07;;;;;;;;;;5073013;28;20032;-77
2021/05/15 06:01:22;;;;;;;7.28;6.57;;;;;;;;;;5072687;28;20470;-77
2021/05/15 06:03:49;;;;;;;9.40;8.60;;;;;;;;;;5087908;28;20125;-76
2021/05/15 06:06:15;;;;;;;4.97;4.50;;;;;;;;;;5090711;28;20028;-80
2021/05/15 06:08:41;;;;;;;2.45;2.25;;;;;;;;;;5073286;28;20032;-77
2021/05/15 06:11:07;;;;;;;1.98;1.80;;;;;;;;;;5073355;28;20079;-77
2021/05/15 06:13:34;;;;;;;4.60;1.98;;;;;;;;;;5072838;28;20082;-80
2021/05/15 06:16:00;;;;;;;;;;;;;;;;;;5082637;28;20039;-80
2021/05/15 06:18:26;;;;;;;1.70;1.60;;;;;;;;;;5072840;28;19908;-80
2021/05/15 06:20:52;;;;;;;1.65;1.55;;;;;;;;;;5072979;28;20402;-80
2021/05/15 06:23:18;;;;;;;1.80;1.70;;;;;;;;;;5073965;28;20020;-80
2021/05/15 06:25:44;;;;;;;1.60;1.50;;;;;;;;;;5073255;28;20790;-82
2021/05/15 06:28:11;;;;;;;1.60;1.50;;;;;;;;;;5074277;28;20017;-80
2021/05/15 06:30:37;;;;;;;1.50;1.40;;;;;;;;;;5091024;28;20032;-82
2021/05/15 06:33:04;;;;;;;1.70;1.60;;;;;;;;;;5091230;28;20024;-81
2021/05/15 06:35:30;;;;;;;1.58;1.48;;;;;;;;;;5091480;28;20454;-81
2021/05/15 06:37:56;;;;;;;1.42;1.33;;;;;;;;;;5089985;28;20016;-80
2021/05/15 06:40:22;;;;;;;3.75;1.45;;;;;;;;;;5072059;28;20044;-81
2021/05/15 06:42:48;;;;;;;1.67;1.50;;;;;;;;;;5070671;28;20028;-80
2021/05/15 06:45:14;;;;;;;1.23;1.23;;;;;;;;;;5077701;28;20054;-82
2021/05/15 06:47:40;;;;;;;1.40;1.30;;;;;;;;;;5072463;28;20052;-81
2021/05/15 06:50:06;;;;;;;4.03;1.50;;;;;;;;;;5072666;28;20467;-78
2021/05/15 06:52:32;;;;;;;2.00;1.40;;;;;;;;;;5072280;28;20749;-79
2021/05/15 06:54:58;;;;;;;1.67;1.40;;;;;;;;;;5084191;28;20068;-80
2021/05/15 06:57:25;;;;;;;1.38;1.27;;;;;;;;;;5092027;28;20036;-81
2021/05/15 06:59:51;;;;;;;3.40;1.50;;;;;;;;;;5091709;28;20431;-78
2021/05/15 07:02:17;;;;;;;2.83;1.50;;;;;;;;;;5076615;28;20360;-81
2021/05/15 07:04:43;;;;;;;1.85;1.67;;;;;;;;;;5071060;28;20083;-84
2021/05/15 07:07:09;;;;;;;3.83;1.60;;;;;;;;;;5070736;28;20048;-78
2021/05/15 07:09:35;;;;;;;3.70;1.30;;;;;;;;;;5077480;28;20118;-78
2021/05/15 07:12:01;;;;;;;2.00;1.33;;;;;;;;;;5084555;28;20036;-84
2021/05/15 07:14:27;;;;;;;3.00;1.10;;;;;;;;;;5083555;28;20458;-73
2021/05/15 07:16:52;;;;;;;2.27;1.40;;;;;;;;;;5078927;28;20024;-76
2021/05/15 07:19:18;;;;;;;3.33;1.30;;;;;;;;;;5075589;28;20039;-76
2021/05/15 07:21:44;;;;;;;1.67;1.40;;;;;;;;;;5070858;28;20531;-74
2021/05/15 07:24:10;;;;;;;1.60;1.50;;;;;;;;;;5077001;28;20046;-76
2021/05/15 07:26:36;;;;;;;4.57;1.60;;;;;;;;;;5077775;28;20039;-75
2021/05/15 07:29:03;;;;;;;6.07;1.60;;;;;;;;;;5082704;28;20067;-75
2021/05/15 07:31:29;;;;;;;1.58;1.48;;;;;;;;;;5076124;28;20039;-74
2021/05/15 07:33:55;;;;;;;3.15;1.60;;;;;;;;;;5088905;28;20529;-74
2021/05/15 07:36:21;;;;;;;3.03;1.70;;;;;;;;;;5090100;28;20020;-73
2021/05/15 07:38:48;;;;;;;1.95;1.60;;;;;;;;;;5091573;28;20123;-74
2021/05/15 07:41:15;;;;;;;3.72;1.63;;;;;;;;;;5091415;28;20065;-73
2021/05/15 07:43:41;;;;;;;3.28;1.60;;;;;;;;;;5090411;28;20497;-73
2021/05/15 07:46:06;;;;;;;2.47;1.60;;;;;;;;;;5089640;28;20036;-73
2021/05/15 07:48:39;;;;;;;1.88;1.45;;;;;;;;;;5090669;28;20461;-73
2021/05/15 07:51:07;;;;;;;2.28;1.42;;;;;;;;;;5091350;28;20051;-73
2021/05/15 07:53:33;;;;;;;1.85;1.50;;;;;;;;;;5083179;28;20074;-72
2021/05/15 07:55:59;;;;;;;2.50;1.50;;;;;;;;;;5071030;28;20028;-73
2021/05/15 07:58:25;;;;;;;1.83;1.60;;;;;;;;;;5073243;28;20086;-73
2021/05/15 08:00:51;;;;;;;3.28;1.65;;;;;;;;;;5072524;28;20129;-73
2021/05/15 08:03:17;;;;;;;3.58;1.67;;;;;;;;;;5084947;28;20032;-73
2021/05/15 08:05:43;;;;;;;3.47;1.60;;;;;;;;;;5078902;28;20024;-73
2021/05/15 08:08:09;;;;;;;1.30;1.20;;;;;;;;;;5070321;28;20032;-73
2021/05/15 08:10:35;;;;;;;2.33;1.50;;;;;;;;;;5087627;28;20486;-74
2021/05/15 08:13:02;;;;;;;1.50;1.40;;;;;;;;;;5087111;28;20105;-73
2021/05/15 08:15:28;;;;;;;1.55;1.40;;;;;;;;;;5069894;28;20177;-74
2021/05/15 08:17:54;;;;;;;;;;;;;;;;;;5070993;28;20028;-73
2021/05/15 08:20:21;;;;;;;2.78;1.50;;;;;;;;;;5084069;28;19904;-73
2021/05/15 08:22:47;;;;;;;1.63;1.52;;;;;;;;;;5087803;28;20030;-74
2021/05/15 08:25:14;;;;;;;2.50;1.35;;;;;;;;;;5080699;28;20032;-74
2021/05/15 08:27:41;;;;;;;3.08;1.40;;;;;;;;;;5090581;28;20028;-74
2021/05/15 08:30:07;;;;;;;;;;;;;;;;;;5090977;28;20032;-74
2021/05/15 08:32:33;;;;;;;1.33;1.23;;;;;;;;;;5090885;28;19991;-75
2021/05/15 08:35:03;;;;;;;3.40;1.60;;;;;;;;;;5079736;28;20056;-75
2021/05/15 08:37:29;;;;;;;2.10;1.60;;;;;;;;;;5070137;28;20048;-75
2021/05/15 08:39:58;;;;;;;1.85;1.50;;;;;;;;;;5075877;28;20028;-76
2021/05/15 08:42:24;;;;;;;3.38;1.40;;;;;;;;;;5076686;28;20049;-79
2021/05/15 08:44:50;;;;;;;;;;;;;;;;;;5078393;28;20032;-77
2021/05/15 08:47:16;;;;;;;;;;;;;;;;;;5072125;28;20331;-74
2021/05/15 08:49:44;;;;;;;2.42;1.65;;;;;;;;;;5082665;28;19974;-76
2021/05/15 08:52:11;;;;;;;2.65;1.45;;;;;;;;;;5070404;28;20056;-79
2021/05/15 08:54:37;;;;;;;1.75;1.40;;;;;;;;;;5078918;28;20178;-76
2021/05/15 08:57:03;;;;;;;2.25;1.65;;;;;;;;;;5090136;28;20115;-81
2021/05/15 08:59:29;;;;;;;2.22;1.50;;;;;;;;;;5090696;28;20031;-76
2021/05/15 09:01:56;;;;;;;4.63;1.50;;;;;;;;;;5094287;28;20377;-75
2021/05/15 09:04:22;;;;;;;2.15;1.45;;;;;;;;;;5094253;28;20043;-76
2021/05/15 09:06:48;;;;;;;3.17;1.48;;;;;;;;;;5081202;28;20494;-76
2021/05/15 09:09:14;;;;;;;3.05;1.63;;;;;;;;;;5074010;28;20075;-77
2021/05/15 09:11:40;;;;;;;2.72;1.63;;;;;;;;;;5074188;28;20055;-75
2021/05/15 09:14:13;;;;;;;3.03;1.48;;;;;;;;;;5089437;28;20245;-76
2021/05/15 09:16:46;;;;;;;3.80;1.52;;;;;;;;;;5086060;28;20024;-77
2021/05/15 09:19:17;;;;;;;1.40;1.30;;;;;;;;;;5077522;28;20059;-77
2021/05/15 09:21:53;;;;;;;1.20;1.20;;;;;;;;;;5087557;28;20466;-76
2021/05/15 09:24:26;;;;;;;1.40;1.30;;;;;;;;;;5104830;28;20023;-77
2021/05/15 09:26:52;;;;;;;2.08;1.15;;;;;;;;;;5114265;28;20382;-79
2021/05/15 09:29:18;;;;;;;1.08;1.08;;;;;;;;;;5106156;27;20047;-79
2021/05/15 09:31:46;;;;;;;3.20;1.17;;;;;;;;;;5083299;28;20036;-79
2021/05/15 09:34:12;;;;;;;1.25;1.15;;;;;;;;;;5073806;28;20603;-81
2021/05/15 09:36:39;;;;;;;1.25;1.25;;;;;;;;;;5073224;28;20048;-80
2021/05/15 09:39:15;;;;;;;1.20;1.10;;;;;;;;;;5073543;28;20047;-80
2021/05/15 09:41:44;;;;;;;0.90;0.90;;;;;;;;;;5073516;28;20024;-81
2021/05/15 09:44:11;;;;;;;1.10;1.10;;;;;;;;;;5075664;28;20167;-79
2021/05/15 09:46:38;;;;;;;1.23;1.05;;;;;;;;;;5080513;28;20049;-79
2021/05/15 09:49:04;;;;;;;1.05;1.05;;;;;;;;;;5089682;28;20048;-79
2021/05/15 09:51:31;;;;;;;2.13;1.02;;;;;;;;;;5081515;28;20060;-78
2021/05/15 09:54:10;;;;;;;1.10;1.00;;;;;;;;;;5073442;28;20025;-79
2021/05/15 09:56:36;;;;;;;1.48;1.00;;;;;;;;;;5086243;28;20103;-81
2021/05/15 09:59:02;;;;;;;1.70;1.10;;;;;;;;;;5083118;28;20103;-87
2021/05/15 10:01:38;;;;;;;1.10;1.10;;;;;;;;;;5087066;28;20134;-87
2021/05/15 10:04:04;;;;;;;1.10;1.10;;;;;;;;;;5078803;28;20028;-86
2021/05/15 10:06:30;;;;;;;1.48;1.30;;;;;;;;;;5091413;28;20107;-89
2021/05/15 10:08:56;;;;;;;1.55;0.90;;;;;;;;;;5076789;28;20123;-87
2021/05/15 10:11:24;;;;;;;1.25;1.10;;;;;;;;;;5085269;28;20049;-88
2021/05/15 10:13:50;;;;;;;1.20;1.15;;;;;;;;;;5076894;28;20132;-88
2021/05/15 10:16:17;;;;;;;1.30;1.20;;;;;;;;;;5073026;28;20020;-87
2021/05/15 10:18:43;;;;;;;1.20;1.10;;;;;;;;;;5081859;28;20025;-88
2021/05/15 10:21:09;;;;;;;1.92;1.17;;;;;;;;;;5081095;28;20036;-89
2021/05/15 10:23:40;;;;;;;3.03;1.30;;;;;;;;;;5076573;28;20039;-82
2021/05/15 10:26:10;;;;;;;3.70;1.30;;;;;;;;;;5078449;28;20425;-81
2021/05/15 10:28:38;;;;;;;3.63;1.30;;;;;;;;;;5085932;28;20032;-83
2021/05/15 10:31:14;;;;;;;1.92;1.20;;;;;;;;;;5087173;28;20047;-82
2021/05/15 10:33:41;;;;;;;1.10;1.10;;;;;;;;;;5088580;28;20046;-83
2021/05/15 10:36:08;;;;;;;2.03;1.05;;;;;;;;;;5079781;28;20413;-83
2021/05/15 10:38:37;;;;;;;1.35;1.20;;;;;;;;;;5078774;28;20111;-85
2021/05/15 10:41:15;;;;;;;1.30;1.20;;;;;;;;;;5090582;28;20032;-84
2021/05/15 10:43:42;;;;;;;2.65;1.50;;;;;;;;;;5079239;28;20024;-83
2021/05/15 10:46:21;;;;;;;1.55;1.38;;;;;;;;;;5083799;28;20394;-83
2021/05/15 10:49:07;;;;;;;1.80;1.20;;;;;;;;;;5089928;28;20112;-85
2021/05/15 10:51:37;;;;;;;5.60;1.50;;;;;;;;;;5078401;28;20055;-85
2021/05/15 10:54:04;;;;;;;1.75;1.40;;;;;;;;;;5077293;28;20050;-85
2021/05/15 10:56:30;;;;;;;;;;;;;;;;;;5085601;28;20034;-74
2021/05/15 10:58:56;;;;;;;;;;;;;;;;;;5092452;28;19904;-75
2021/05/15 11:01:25;;;;;;;3.47;1.48;;;;;;;;;;5075565;28;19922;-75
2021/05/15 11:03:51;;;;;;;2.53;1.67;;;;;;;;;;5070373;28;20396;-76
2021/05/15 11:06:19;;;;;;;2.55;1.25;;;;;;;;;;5074408;28;22002;-84
2021/05/15 11:09:06;;;;;;;2.83;1.33;;;;;;;;;;5086942;28;20054;-74
2021/05/15 11:11:35;;;;;;;4.40;1.42;;;;;;;;;;5070861;28;20495;-78
2021/05/15 11:14:02;;;;;;;2.47;1.38;;;;;;;;;;5084556;28;20048;-77
2021/05/15 11:16:32;;;;;;;3.15;1.30;;;;;;;;;;5086399;28;20039;-78
2021/05/15 11:19:08;;;;;;;3.05;1.15;;;;;;;;;;5091439;28;20020;-78
2021/05/15 11:21:37;;;;;;;1.55;1.10;;;;;;;;;;5091600;28;20024;-78
2021/05/15 11:24:05;;;;;;;1.65;1.10;;;;;;;;;;5090591;28;20039;-78
2021/05/15 11:26:47;;;;;;;2.55;1.15;;;;;;;;;;5091038;28;20073;-78
2021/05/15 11:29:13;;;;;;;2.13;0.95;;;;;;;;;;5091364;28;20478;-76
2021/05/15 11:31:39;;;;;;;2.78;1.23;;;;;;;;;;5091311;28;20055;-77
2021/05/15 11:34:16;;;;;;;1.08;1.00;;;;;;;;;;5090787;28;20048;-77
2021/05/15 11:36:43;;;;;;;2.40;1.23;;;;;;;;;;5084639;28;20017;-77
2021/05/15 11:39:10;;;;;;;1.58;1.30;;;;;;;;;;5070635;28;20032;-77
2021/05/15 11:41:36;;;;;;;;;;;;;;;;;;5071201;28;20471;-77
2021/05/15 11:44:02;;;;;;;2.03;1.17;;;;;;;;;;5070928;28;19904;-77
2021/05/15 11:46:28;;;;;;;1.20;1.10;;;;;;;;;;5070356;28;20056;-77
2021/05/15 11:48:54;;;;;;;1.60;1.10;;;;;;;;;;5070498;28;20736;-78
2021/05/15 11:51:20;;;;;;;1.42;1.15;;;;;;;;;;5070338;28;20025;-78
2021/05/15 11:53:46;;;;;;;1.30;1.20;;;;;;;;;;5070241;28;20040;-77
2021/05/15 11:56:19;;;;;;;1.23;1.13;;;;;;;;;;5070644;28;20258;-78
2021/05/15 11:58:56;;;;;;;0.90;0.90;;;;;;;;;;5070400;28;20029;-77
2021/05/15 12:01:25;;;;;;;1.20;1.10;;;;;;;;;;5070500;28;20036;-77
2021/05/15 12:03:52;;;;;;;1.17;1.10;;;;;;;;;;5069670;28;20036;-78
2021/05/15 12:06:18;;;;;;;1.30;1.10;;;;;;;;;;5070696;28;20086;-78
2021/05/15 12:08:45;;;;;;;1.30;1.10;;;;;;;;;;5070193;28;20600;-77
2021/05/15 12:11:11;;;;;;;0.90;0.90;;;;;;;;;;5070762;28;20389;-78
2021/05/15 12:13:48;;;;;;;1.40;1.15;;;;;;;;;;5070308;28;20430;-78
2021/05/15 12:16:14;;;;;;;;;;;;;;;;;;5069182;28;20030;-77
2021/05/15 12:18:40;;;;;;;1.25;0.90;;;;;;;;;;5070400;28;19908;-77
2021/05/15 12:21:06;;;;;;;1.30;1.20;;;;;;;;;;5070211;28;20509;-77
2021/05/15 12:23:33;;;;;;;1.17;1.08;;;;;;;;;;5070394;28;20107;-77
2021/05/15 12:26:00;;;;;;;0.80;0.80;;;;;;;;;;5069070;28;20606;-77
2021/05/15 12:28:31;;;;;;;1.08;1.05;;;;;;;;;;5069828;28;20517;-78
2021/05/15 12:31:01;;;;;;;1.05;1.00;;;;;;;;;;5070138;28;20074;-78
2021/05/15 12:33:28;;;;;;;1.67;1.10;;;;;;;;;;5069854;28;20032;-78
2021/05/15 12:35:58;;;;;;;1.35;1.25;;;;;;;;;;5072170;28;20060;-78
2021/05/15 12:38:24;;;;;;;1.13;1.02;;;;;;;;;;5073926;28;20028;-77
2021/05/15 12:40:50;;;;;;;1.30;1.13;;;;;;;;;;5074212;28;20066;-78
2021/05/15 12:43:21;;;;;;;1.23;1.08;;;;;;;;;;5074336;28;20021;-77
2021/05/15 12:45:47;;;;;;;1.92;1.27;;;;;;;;;;5084553;28;20060;-78
2021/05/15 12:48:36;;;;;;;1.10;1.10;;;;;;;;;;5094454;28;20040;-78
2021/05/15 12:51:06;;;;;;;1.15;1.00;;;;;;;;;;5094121;28;20376;-78
2021/05/15 12:53:32;;;;;;;2.22;1.10;;;;;;;;;;5094370;28;20296;-77
2021/05/15 12:55:58;;;;;;;1.02;1.02;;;;;;;;;;5094284;28;20555;-78
2021/05/15 12:58:25;;;;;;;1.57;1.17;;;;;;;;;;5094167;28;20397;-77
2021/05/15 13:00:56;;;;;;;0.90;0.90;;;;;;;;;;5094153;28;20032;-77
2021/05/15 13:03:23;;;;;;;1.15;1.08;;;;;;;;;;5093151;28;20400;-78
2021/05/15 13:05:49;;;;;;;1.58;0.93;;;;;;;;;;5093458;28;20541;-77
2021/05/15 13:08:15;;;;;;;0.95;0.95;;;;;;;;;;5091551;28;20030;-77
2021/05/15 13:10:41;;;;;;;1.08;1.02;;;;;;;;;;5093387;28;20039;-78
2021/05/15 13:13:08;;;;;;;1.00;1.00;;;;;;;;;;5093692;28;20024;-77
2021/05/15 13:15:36;;;;;;;1.00;1.00;;;;;;;;;;5093821;28;20143;-77
2021/05/15 13:18:02;;;;;;;1.65;1.00;;;;;;;;;;5093911;28;20394;-77
2021/05/15 13:20:28;;;;;;;1.13;1.02;;;;;;;;;;5093218;28;20568;-77
2021/05/15 13:22:54;;;;;;;0.93;0.90;;;;;;;;;;5093708;28;20028;-77
2021/05/15 13:25:21;;;;;;;1.07;1.00;;;;;;;;;;5093388;28;20760;-77
2021/05/15 13:27:47;;;;;;;0.90;0.90;;;;;;;;;;5093023;28;20266;-77
2021/05/15 13:30:14;;;;;;;0.98;0.98;;;;;;;;;;5093401;28;20028;-78
2021/05/15 13:32:40;;;;;;;;;;;;;;;;;;5094004;28;20103;-77
2021/05/15 13:35:06;;;;;;;0.80;0.80;;;;;;;;;;5093072;28;20015;-77
2021/05/15 13:37:32;;;;;;;1.10;1.10;;;;;;;;;;5076254;28;20038;-77
2021/05/15 13:39:58;;;;;;;1.00;1.00;;;;;;;;;;5072792;28;20025;-77
2021/05/15 13:42:24;;;;;;;1.05;1.00;;;;;;;;;;5073249;28;20558;-77
2021/05/15 13:44:50;;;;;;;1.00;1.00;;;;;;;;;;5072889;28;20040;-77
2021/05/15 13:47:16;;;;;;;1.02;0.98;;;;;;;;;;5071554;28;20041;-77
2021/05/15 13:49:42;;;;;;;0.88;0.88;;;;;;;;;;5072853;28;20107;-77
2021/05/15 13:52:08;;;;;;;0.80;0.80;;;;;;;;;;5072638;28;20489;-78
2021/05/15 13:54:34;;;;;;;1.27;1.20;;;;;;;;;;5072736;28;20356;-77
2021/05/15 13:57:00;;;;;;;1.07;0.87;;;;;;;;;;5072660;28;20024;-76
2021/05/15 13:59:26;;;;;;;0.80;0.80;;;;;;;;;;5072665;28;20294;-77
2021/05/15 14:01:52;;;;;;;1.07;1.07;;;;;;;;;;5072892;28;20285;-78
2021/05/15 14:04:18;;;;;;;1.00;1.00;;;;;;;;;;5072666;28;20256;-77
2021/05/15 14:06:44;;;;;;;0.90;0.90;;;;;;;;;;5072417;28;20608;-77
2021/05/15 14:09:10;;;;;;;0.77;0.77;;;;;;;;;;5071953;28;20052;-77
2021/05/15 14:11:36;;;;;;;1.00;1.00;;;;;;;;;;5072502;28;20360;-77
2021/05/15 14:14:02;;;;;;;0.85;0.70;;;;;;;;;;5071034;28;20374;-76
2021/05/15 14:16:28;;;;;;;0.85;0.85;;;;;;;;;;5072075;28;20036;-77
2021/05/15 14:18:54;;;;;;;1.00;1.00;;;;;;;;;;5072405;28;20028;-77
2021/05/15 14:21:20;;;;;;;0.80;0.80;;;;;;;;;;5072306;28;20047;-77
2021/05/15 14:23:47;;;;;;;1.17;1.08;;;;;;;;;;5070387;28;20153;-77
2021/05/15 14:26:13;;;;;;;0.75;0.75;;;;;;;;;;5072327;28;20039;-77
2021/05/15 14:28:39;;;;;;;1.02;0.90;;;;;;;;;;5072108;28;20028;-77
2021/05/15 14:31:05;;;;;;;0.80;0.80;;;;;;;;;;5071782;28;20051;-77
2021/05/15 14:33:31;;;;;;;1.00;1.00;;;;;;;;;;5072171;28;20033;-77
2021/05/15 14:35:57;;;;;;;1.10;0.95;;;;;;;;;;5092562;27;20102;-80
2021/05/15 14:38:23;;;;;;;10.45;1.50;;;;;;;;;;5082906;28;20048;-77
2021/05/15 14:40:49;;;;;;;0.90;0.90;;;;;;;;;;5089512;28;20020;-78
2021/05/15 14:43:16;;;;;;;4.80;1.50;;;;;;;;;;5080869;28;20262;-76